sensor_id;sensor_type;location;lat;lon;timestamp;pressure;altitude;pressure_sealevel;temperature;humidity
3150;BME280;32503;47.748;8.960;2023-07-28T00:01:15;96318.28;;;18.64;70.77
3150;BME280;32503;47.748;8.960;2023-07-28T00:03:42;96321.78;;;18.65;70.71
3150;BME280;32503;47.748;8.960;2023-07-28T00:06:09;96318.00;;;18.59;70.72
3150;BME280;32503;47.748;8.960;2023-07-28T00:08:37;96313.28;;;18.59;70.34
3150;BME280;32503;47.748;8.960;2023-07-28T00:11:09;96314.47;;;18.58;70.46
3150;BME280;32503;47.748;8.960;2023-07-28T00:13:37;96306.34;;;18.54;70.69
3150;BME280;32503;47.748;8.960;2023-07-28T00:16:06;96312.81;;;18.44;71.43
3150;BME280;32503;47.748;8.960;2023-07-28T00:18:33;96304.28;;;18.38;71.86
3150;BME280;32503;47.748;8.960;2023-07-28T00:21:00;96296.50;;;18.37;72.06
3150;BME280;32503;47.748;8.960;2023-07-28T00:23:28;96296.16;;;18.35;72.30
3150;BME280;32503;47.748;8.960;2023-07-28T00:25:55;96297.75;;;18.32;72.50
3150;BME280;32503;47.748;8.960;2023-07-28T00:28:22;96303.66;;;18.31;72.74
3150;BME280;32503;47.748;8.960;2023-07-28T00:30:50;96288.06;;;18.28;72.53
3150;BME280;32503;47.748;8.960;2023-07-28T00:33:18;96288.06;;;18.28;72.36
3150;BME280;32503;47.748;8.960;2023-07-28T00:35:45;96288.13;;;18.24;72.39
3150;BME280;32503;47.748;8.960;2023-07-28T00:38:12;96282.25;;;18.26;72.70
3150;BME280;32503;47.748;8.960;2023-07-28T00:40:39;96269.53;;;18.15;72.89
3150;BME280;32503;47.748;8.960;2023-07-28T00:43:07;96276.78;;;18.26;72.85
3150;BME280;32503;47.748;8.960;2023-07-28T00:45:36;96268.63;;;18.22;72.89
3150;BME280;32503;47.748;8.960;2023-07-28T00:48:10;96264.41;;;18.17;73.20
3150;BME280;32503;47.748;8.960;2023-07-28T00:50:41;96271.09;;;18.16;73.45
3150;BME280;32503;47.748;8.960;2023-07-28T00:53:09;96273.53;;;18.11;73.60
3150;BME280;32503;47.748;8.960;2023-07-28T00:55:37;96277.44;;;18.10;73.38
3150;BME280;32503;47.748;8.960;2023-07-28T00:58:05;96273.53;;;18.11;73.22
3150;BME280;32503;47.748;8.960;2023-07-28T01:00:32;96269.59;;;18.12;73.10
3150;BME280;32503;47.748;8.960;2023-07-28T01:02:59;96270.44;;;18.09;72.68
3150;BME280;32503;47.748;8.960;2023-07-28T01:05:32;96269.66;;;18.08;72.80
3150;BME280;32503;47.748;8.960;2023-07-28T01:08:07;96272.75;;;18.10;72.40
3150;BME280;32503;47.748;8.960;2023-07-28T01:10:36;96263.50;;;18.04;72.12
3150;BME280;32503;47.748;8.960;2023-07-28T01:13:05;96270.75;;;17.91;72.48
3150;BME280;32503;47.748;8.960;2023-07-28T01:15:32;96270.03;;;17.87;72.65
3150;BME280;32503;47.748;8.960;2023-07-28T01:17:59;96266.19;;;17.80;73.24
3150;BME280;32503;47.748;8.960;2023-07-28T01:20:30;96262.41;;;17.74;73.32
3150;BME280;32503;47.748;8.960;2023-07-28T01:23:24;96261.63;;;17.74;73.38
3150;BME280;32503;47.748;8.960;2023-07-28T01:26:06;96261.63;;;17.74;73.42
3150;BME280;32503;47.748;8.960;2023-07-28T01:28:37;96266.25;;;17.77;73.37
3150;BME280;32503;47.748;8.960;2023-07-28T01:31:06;96267.03;;;17.77;73.39
3150;BME280;32503;47.748;8.960;2023-07-28T01:33:34;96267.03;;;17.77;73.47
3150;BME280;32503;47.748;8.960;2023-07-28T01:36:01;96263.56;;;17.73;73.36
3150;BME280;32503;47.748;8.960;2023-07-28T01:38:29;96273.28;;;17.78;73.02
3150;BME280;32503;47.748;8.960;2023-07-28T01:40:56;96272.69;;;17.67;73.62
3150;BME280;32503;47.748;8.960;2023-07-28T01:43:23;96273.56;;;17.60;73.71
3150;BME280;32503;47.748;8.960;2023-07-28T01:45:51;96271.31;;;17.55;74.04
3150;BME280;32503;47.748;8.960;2023-07-28T01:48:19;96271.78;;;17.50;74.18
3150;BME280;32503;47.748;8.960;2023-07-28T01:50:46;96265.84;;;17.55;74.17
3150;BME280;32503;47.748;8.960;2023-07-28T01:53:13;96265.38;;;17.60;73.66
3150;BME280;32503;47.748;8.960;2023-07-28T01:55:40;96268.47;;;17.62;73.59
3150;BME280;32503;47.748;8.960;2023-07-28T01:58:07;96252.81;;;17.62;73.35
3150;BME280;32503;47.748;8.960;2023-07-28T02:02:48;96267.38;;;17.56;74.05
3150;BME280;32503;47.748;8.960;2023-07-28T02:05:16;96266.19;;;17.57;73.99
3150;BME280;32503;47.748;8.960;2023-07-28T02:07:43;96261.91;;;17.56;74.24
3150;BME280;32503;47.748;8.960;2023-07-28T02:10:10;96261.88;;;17.59;74.01
3150;BME280;32503;47.748;8.960;2023-07-28T02:12:38;96273.94;;;17.62;73.60
3150;BME280;32503;47.748;8.960;2023-07-28T02:15:06;96277.47;;;17.59;74.00
3150;BME280;32503;47.748;8.960;2023-07-28T02:17:34;96285.03;;;17.51;74.64
3150;BME280;32503;47.748;8.960;2023-07-28T02:20:03;96279.97;;;17.50;74.68
3150;BME280;32503;47.748;8.960;2023-07-28T02:22:31;96282.72;;;17.50;74.93
3150;BME280;32503;47.748;8.960;2023-07-28T02:24:58;96290.91;;;17.50;75.00
3150;BME280;32503;47.748;8.960;2023-07-28T02:27:27;96292.81;;;17.53;75.16
3150;BME280;32503;47.748;8.960;2023-07-28T02:29:55;96289.66;;;17.54;74.99
3150;BME280;32503;47.748;8.960;2023-07-28T02:32:22;96316.56;;;17.56;75.25
3150;BME280;32503;47.748;8.960;2023-07-28T02:34:49;96308.69;;;17.61;74.89
3150;BME280;32503;47.748;8.960;2023-07-28T02:37:18;96300.09;;;17.63;75.00
3150;BME280;32503;47.748;8.960;2023-07-28T02:39:45;96329.28;;;17.66;74.98
3150;BME280;32503;47.748;8.960;2023-07-28T02:42:12;96328.19;;;17.63;75.00
3150;BME280;32503;47.748;8.960;2023-07-28T02:44:40;96323.47;;;17.64;74.93
3150;BME280;32503;47.748;8.960;2023-07-28T02:47:07;96332.13;;;17.59;74.91
3150;BME280;32503;47.748;8.960;2023-07-28T02:49:34;96335.75;;;17.52;75.24
3150;BME280;32503;47.748;8.960;2023-07-28T02:52:01;96330.59;;;17.58;75.02
3150;BME280;32503;47.748;8.960;2023-07-28T02:54:30;96343.13;;;17.55;75.01
3150;BME280;32503;47.748;8.960;2023-07-28T02:56:57;96342.34;;;17.55;74.84
3150;BME280;32503;47.748;8.960;2023-07-28T02:59:24;96340.38;;;17.55;74.70
3150;BME280;32503;47.748;8.960;2023-07-28T03:01:52;96348.19;;;17.57;74.88
3150;BME280;32503;47.748;8.960;2023-07-28T03:04:19;96338.81;;;17.58;74.50
3150;BME280;32503;47.748;8.960;2023-07-28T03:06:46;96341.16;;;17.56;74.27
3150;BME280;32503;47.748;8.960;2023-07-28T03:09:14;96353.38;;;17.48;74.52
3150;BME280;32503;47.748;8.960;2023-07-28T03:11:43;96364.41;;;17.40;75.08
3150;BME280;32503;47.748;8.960;2023-07-28T03:14:10;96354.25;;;17.41;75.00
3150;BME280;32503;47.748;8.960;2023-07-28T03:16:39;96347.63;;;17.42;74.74
3150;BME280;32503;47.748;8.960;2023-07-28T03:19:06;96349.19;;;17.39;74.87
3150;BME280;32503;47.748;8.960;2023-07-28T03:21:33;96350.97;;;17.26;75.78
3150;BME280;32503;47.748;8.960;2023-07-28T03:24:00;96353.69;;;17.26;75.68
3150;BME280;32503;47.748;8.960;2023-07-28T03:26:27;96359.06;;;17.33;75.10
3150;BME280;32503;47.748;8.960;2023-07-28T03:28:56;96358.22;;;17.36;75.04
3150;BME280;32503;47.748;8.960;2023-07-28T03:31:23;96372.25;;;17.38;74.80
3150;BME280;32503;47.748;8.960;2023-07-28T03:33:50;96356.22;;;17.40;74.25
3150;BME280;32503;47.748;8.960;2023-07-28T03:36:17;96373.78;;;17.39;74.17
3150;BME280;32503;47.748;8.960;2023-07-28T03:38:45;96375.41;;;17.37;74.00
3150;BME280;32503;47.748;8.960;2023-07-28T03:41:13;96369.56;;;17.35;73.90
3150;BME280;32503;47.748;8.960;2023-07-28T03:43:40;96375.44;;;17.33;73.75
3150;BME280;32503;47.748;8.960;2023-07-28T03:46:09;96365.69;;;17.32;73.91
3150;BME280;32503;47.748;8.960;2023-07-28T03:48:36;96368.44;;;17.32;74.16
3150;BME280;32503;47.748;8.960;2023-07-28T03:51:04;96362.56;;;17.34;74.19
3150;BME280;32503;47.748;8.960;2023-07-28T03:53:31;96365.28;;;17.34;73.77
3150;BME280;32503;47.748;8.960;2023-07-28T03:56:01;96367.59;;;17.35;74.05
3150;BME280;32503;47.748;8.960;2023-07-28T03:58:28;96358.22;;;17.36;74.19
3150;BME280;32503;47.748;8.960;2023-07-28T04:00:55;96348.84;;;17.37;74.19
3150;BME280;32503;47.748;8.960;2023-07-28T04:03:23;96366.34;;;17.40;74.15
3150;BME280;32503;47.748;8.960;2023-07-28T04:05:50;96365.94;;;17.41;74.25
3150;BME280;32503;47.748;8.960;2023-07-28T04:08:17;96373.78;;;17.39;75.10
3150;BME280;32503;47.748;8.960;2023-07-28T04:10:44;96381.16;;;17.42;74.82
3150;BME280;32503;47.748;8.960;2023-07-28T04:13:12;96381.53;;;17.44;75.07
3150;BME280;32503;47.748;8.960;2023-07-28T04:15:39;96375.25;;;17.48;75.10
3150;BME280;32503;47.748;8.960;2023-07-28T04:18:07;96371.25;;;17.52;75.03
3150;BME280;32503;47.748;8.960;2023-07-28T04:20:35;96364.56;;;17.57;75.24
3150;BME280;32503;47.748;8.960;2023-07-28T04:23:02;96366.84;;;17.62;75.13
3150;BME280;32503;47.748;8.960;2023-07-28T04:25:29;96370.28;;;17.66;74.68
3150;BME280;32503;47.748;8.960;2023-07-28T04:27:56;96375.34;;;17.68;74.39
3150;BME280;32503;47.748;8.960;2023-07-28T04:30:23;96376.56;;;17.67;74.66
3150;BME280;32503;47.748;8.960;2023-07-28T04:32:50;96368.72;;;17.69;74.66
3150;BME280;32503;47.748;8.960;2023-07-28T04:35:18;96378.84;;;17.68;74.67
3150;BME280;32503;47.748;8.960;2023-07-28T04:37:46;96382.69;;;17.74;74.38
3150;BME280;32503;47.748;8.960;2023-07-28T04:40:13;96372.47;;;17.78;74.36
3150;BME280;32503;47.748;8.960;2023-07-28T04:42:40;96369.06;;;17.98;73.76
3150;BME280;32503;47.748;8.960;2023-07-28T04:45:08;96375.03;;;18.16;73.18
3150;BME280;32503;47.748;8.960;2023-07-28T04:47:36;96373.09;;;18.37;72.39
3150;BME280;32503;47.748;8.960;2023-07-28T04:50:03;96382.91;;;18.58;72.17
3150;BME280;32503;47.748;8.960;2023-07-28T04:52:31;96379.34;;;18.81;71.42
3150;BME280;32503;47.748;8.960;2023-07-28T04:54:59;96387.47;;;19.08;70.43
3150;BME280;32503;47.748;8.960;2023-07-28T04:57:26;96394.00;;;19.35;69.58
3150;BME280;32503;47.748;8.960;2023-07-28T04:59:53;96392.84;;;19.52;68.67
3150;BME280;32503;47.748;8.960;2023-07-28T05:02:20;96393.38;;;19.63;68.45
3150;BME280;32503;47.748;8.960;2023-07-28T05:04:47;96385.72;;;19.75;67.82
3150;BME280;32503;47.748;8.960;2023-07-28T05:07:14;96387.56;;;19.98;67.44
3150;BME280;32503;47.748;8.960;2023-07-28T05:09:41;96383.00;;;20.24;66.70
3150;BME280;32503;47.748;8.960;2023-07-28T05:12:11;96387.00;;;20.52;65.74
3150;BME280;32503;47.748;8.960;2023-07-28T05:14:39;96388.25;;;20.80;65.10
3150;BME280;32503;47.748;8.960;2023-07-28T05:17:07;96390.56;;;21.11;64.10
3150;BME280;32503;47.748;8.960;2023-07-28T05:19:34;96382.03;;;21.35;63.29
3150;BME280;32503;47.748;8.960;2023-07-28T05:22:01;96395.09;;;21.60;62.61
3150;BME280;32503;47.748;8.960;2023-07-28T05:24:28;96398.59;;;21.86;61.43
3150;BME280;32503;47.748;8.960;2023-07-28T05:26:55;96409.38;;;21.93;60.77
3150;BME280;32503;47.748;8.960;2023-07-28T05:29:24;96407.63;;;22.12;60.60
3150;BME280;32503;47.748;8.960;2023-07-28T05:31:51;96406.63;;;22.45;59.91
3150;BME280;32503;47.748;8.960;2023-07-28T05:34:18;96414.81;;;22.70;58.64
3150;BME280;32503;47.748;8.960;2023-07-28T05:36:45;96411.00;;;22.90;58.14
3150;BME280;32503;47.748;8.960;2023-07-28T05:39:12;96412.06;;;23.05;57.19
3150;BME280;32503;47.748;8.960;2023-07-28T05:41:39;96421.44;;;23.30;56.44
3150;BME280;32503;47.748;8.960;2023-07-28T05:44:06;96408.72;;;23.33;56.46
3150;BME280;32503;47.748;8.960;2023-07-28T05:46:35;96407.53;;;23.65;55.91
3150;BME280;32503;47.748;8.960;2023-07-28T05:49:02;96408.25;;;23.88;54.79
3150;BME280;32503;47.748;8.960;2023-07-28T05:51:29;96408.38;;;24.25;53.96
3150;BME280;32503;47.748;8.960;2023-07-28T05:53:56;96412.19;;;24.68;53.02
3150;BME280;32503;47.748;8.960;2023-07-28T05:56:23;96399.63;;;24.85;52.19
3150;BME280;32503;47.748;8.960;2023-07-28T05:58:50;96420.66;;;24.92;51.74
3150;BME280;32503;47.748;8.960;2023-07-28T06:01:18;96416.19;;;25.22;51.19
3150;BME280;32503;47.748;8.960;2023-07-28T06:03:46;96420.03;;;25.43;50.56
3150;BME280;32503;47.748;8.960;2023-07-28T06:06:13;96425.94;;;25.69;50.07
3150;BME280;32503;47.748;8.960;2023-07-28T06:08:40;96424.94;;;26.00;49.33
3150;BME280;32503;47.748;8.960;2023-07-28T06:11:08;96419.13;;;26.32;48.38
3150;BME280;32503;47.748;8.960;2023-07-28T06:13:35;96421.88;;;26.56;47.54
3150;BME280;32503;47.748;8.960;2023-07-28T06:16:02;96425.22;;;26.69;46.85
3150;BME280;32503;47.748;8.960;2023-07-28T06:18:29;96428.16;;;26.90;46.86
3150;BME280;32503;47.748;8.960;2023-07-28T06:20:58;96416.34;;;27.19;45.65
3150;BME280;32503;47.748;8.960;2023-07-28T06:23:25;96413.47;;;27.13;46.06
3150;BME280;32503;47.748;8.960;2023-07-28T06:25:53;96410.97;;;27.00;46.00
3150;BME280;32503;47.748;8.960;2023-07-28T06:28:21;96415.41;;;26.59;46.51
3150;BME280;32503;47.748;8.960;2023-07-28T06:30:53;96415.69;;;26.37;47.54
3150;BME280;32503;47.748;8.960;2023-07-28T06:33:20;96417.91;;;26.23;47.76
3150;BME280;32503;47.748;8.960;2023-07-28T06:35:48;96429.25;;;26.01;48.63
3150;BME280;32503;47.748;8.960;2023-07-28T06:38:16;96429.13;;;25.86;49.68
3150;BME280;32503;47.748;8.960;2023-07-28T06:40:43;96429.78;;;25.72;50.12
3150;BME280;32503;47.748;8.960;2023-07-28T06:43:10;96431.19;;;25.58;50.50
3150;BME280;32503;47.748;8.960;2023-07-28T06:45:38;96428.00;;;25.41;50.67
3150;BME280;32503;47.748;8.960;2023-07-28T06:48:05;96444.78;;;25.28;51.88
3150;BME280;32503;47.748;8.960;2023-07-28T06:50:32;96445.22;;;25.27;51.56
3150;BME280;32503;47.748;8.960;2023-07-28T06:52:59;96444.75;;;25.19;51.62
3150;BME280;32503;47.748;8.960;2023-07-28T06:55:28;96450.63;;;25.03;52.53
3150;BME280;32503;47.748;8.960;2023-07-28T06:57:55;96454.91;;;25.04;53.34
3150;BME280;32503;47.748;8.960;2023-07-28T07:00:22;96453.06;;;25.38;52.63
3150;BME280;32503;47.748;8.960;2023-07-28T07:02:49;96443.09;;;25.92;51.21
3150;BME280;32503;47.748;8.960;2023-07-28T07:05:16;96443.31;;;26.22;50.60
3150;BME280;32503;47.748;8.960;2023-07-28T07:07:44;96451.75;;;26.27;49.35
3150;BME280;32503;47.748;8.960;2023-07-28T07:10:11;96449.19;;;26.48;49.38
3150;BME280;32503;47.748;8.960;2023-07-28T07:12:39;96449.59;;;26.56;49.20
3150;BME280;32503;47.748;8.960;2023-07-28T07:15:08;96442.66;;;26.60;48.31
3150;BME280;32503;47.748;8.960;2023-07-28T07:17:37;96431.97;;;26.44;48.43
3150;BME280;32503;47.748;8.960;2023-07-28T07:20:07;96442.03;;;26.90;48.03
3150;BME280;32503;47.748;8.960;2023-07-28T07:22:36;96444.16;;;27.34;46.79
3150;BME280;32503;47.748;8.960;2023-07-28T07:25:04;96445.72;;;27.94;45.97
3150;BME280;32503;47.748;8.960;2023-07-28T07:27:32;96441.38;;;28.44;45.19
3150;BME280;32503;47.748;8.960;2023-07-28T07:30:01;96437.63;;;28.82;43.23
3150;BME280;32503;47.748;8.960;2023-07-28T07:32:28;96450.31;;;28.89;41.42
3150;BME280;32503;47.748;8.960;2023-07-28T07:34:55;96436.16;;;28.87;42.04
3150;BME280;32503;47.748;8.960;2023-07-28T07:37:23;96448.03;;;29.08;41.90
3150;BME280;32503;47.748;8.960;2023-07-28T07:39:50;96442.66;;;29.04;42.38
3150;BME280;32503;47.748;8.960;2023-07-28T07:42:17;96441.97;;;28.89;42.45
3150;BME280;32503;47.748;8.960;2023-07-28T07:44:44;96438.78;;;28.76;42.35
3150;BME280;32503;47.748;8.960;2023-07-28T07:47:15;96441.63;;;28.81;42.31
3150;BME280;32503;47.748;8.960;2023-07-28T07:49:43;96445.06;;;28.91;42.46
3150;BME280;32503;47.748;8.960;2023-07-28T07:52:10;96447.25;;;29.07;41.98
3150;BME280;32503;47.748;8.960;2023-07-28T07:54:37;96445.63;;;29.16;41.72
3150;BME280;32503;47.748;8.960;2023-07-28T07:57:05;96443.09;;;28.97;41.77
3150;BME280;32503;47.748;8.960;2023-07-28T07:59:32;96451.50;;;28.62;41.37
3150;BME280;32503;47.748;8.960;2023-07-28T08:02:00;96458.25;;;28.55;42.08
3150;BME280;32503;47.748;8.960;2023-07-28T08:04:30;96461.13;;;28.46;41.80
3150;BME280;32503;47.748;8.960;2023-07-28T08:06:57;96461.13;;;28.46;42.31
3150;BME280;32503;47.748;8.960;2023-07-28T08:09:24;96460.09;;;28.43;42.09
3150;BME280;32503;47.748;8.960;2023-07-28T08:11:52;96461.94;;;28.31;43.04
3150;BME280;32503;47.748;8.960;2023-07-28T08:14:19;96469.28;;;27.99;43.71
3150;BME280;32503;47.748;8.960;2023-07-28T08:16:46;96463.97;;;27.86;43.71
3150;BME280;32503;47.748;8.960;2023-07-28T08:19:14;96452.28;;;27.52;44.33
3150;BME280;32503;47.748;8.960;2023-07-28T08:21:42;96457.19;;;27.57;43.98
3150;BME280;32503;47.748;8.960;2023-07-28T08:24:10;96456.81;;;27.50;44.33
3150;BME280;32503;47.748;8.960;2023-07-28T08:26:37;96468.16;;;27.37;44.47
3150;BME280;32503;47.748;8.960;2023-07-28T08:29:03;96473.19;;;27.23;45.58
3150;BME280;32503;47.748;8.960;2023-07-28T08:31:31;96469.91;;;27.10;46.04
3150;BME280;32503;47.748;8.960;2023-07-28T08:33:58;96469.88;;;26.95;46.02
3150;BME280;32503;47.748;8.960;2023-07-28T08:36:25;96466.81;;;26.93;46.06
3150;BME280;32503;47.748;8.960;2023-07-28T08:38:54;96467.84;;;26.96;45.97
3150;BME280;32503;47.748;8.960;2023-07-28T08:41:21;96470.72;;;27.01;46.23
3150;BME280;32503;47.748;8.960;2023-07-28T08:43:48;96467.78;;;27.05;46.14
3150;BME280;32503;47.748;8.960;2023-07-28T08:46:16;96464.44;;;27.01;46.26
3150;BME280;32503;47.748;8.960;2023-07-28T08:48:44;96458.66;;;26.90;46.43
3150;BME280;32503;47.748;8.960;2023-07-28T08:51:12;96462.84;;;26.85;46.72
3150;BME280;32503;47.748;8.960;2023-07-28T08:53:39;96454.75;;;26.96;46.44
3150;BME280;32503;47.748;8.960;2023-07-28T08:56:08;96426.72;;;26.70;46.60
3150;BME280;32503;47.748;8.960;2023-07-28T08:58:35;96458.00;;;26.95;46.73
3150;BME280;32503;47.748;8.960;2023-07-28T09:01:02;96456.00;;;26.95;46.88
3150;BME280;32503;47.748;8.960;2023-07-28T09:03:30;96460.47;;;26.93;46.99
3150;BME280;32503;47.748;8.960;2023-07-28T09:06:00;96463.44;;;26.89;46.91
3150;BME280;32503;47.748;8.960;2023-07-28T09:08:30;96469.03;;;26.80;47.16
3150;BME280;32503;47.748;8.960;2023-07-28T09:11:03;96459.34;;;26.75;47.77
3150;BME280;32503;47.748;8.960;2023-07-28T09:13:39;96472.63;;;26.71;47.51
3150;BME280;32503;47.748;8.960;2023-07-28T09:16:17;96468.03;;;26.68;47.92
3150;BME280;32503;47.748;8.960;2023-07-28T09:18:44;96470.81;;;26.68;47.51
3150;BME280;32503;47.748;8.960;2023-07-28T09:21:17;96476.97;;;26.72;47.93
3150;BME280;32503;47.748;8.960;2023-07-28T09:23:45;96478.59;;;26.79;47.95
3150;BME280;32503;47.748;8.960;2023-07-28T09:26:12;96472.56;;;26.80;48.40
3150;BME280;32503;47.748;8.960;2023-07-28T09:28:42;96469.22;;;26.76;47.69
3150;BME280;32503;47.748;8.960;2023-07-28T09:31:09;96472.88;;;26.82;47.28
3150;BME280;32503;47.748;8.960;2023-07-28T09:33:37;96471.00;;;26.89;47.42
3150;BME280;32503;47.748;8.960;2023-07-28T09:36:09;96468.44;;;27.00;46.69
3150;BME280;32503;47.748;8.960;2023-07-28T09:38:38;96471.34;;;27.05;46.38
3150;BME280;32503;47.748;8.960;2023-07-28T09:41:08;96465.28;;;27.07;46.37
3150;BME280;32503;47.748;8.960;2023-07-28T09:43:37;96471.63;;;27.08;45.38
3150;BME280;32503;47.748;8.960;2023-07-28T09:46:08;96459.56;;;27.11;45.30
3150;BME280;32503;47.748;8.960;2023-07-28T09:48:38;96461.81;;;27.21;45.78
3150;BME280;32503;47.748;8.960;2023-07-28T09:51:08;96450.06;;;27.27;45.71
3150;BME280;32503;47.748;8.960;2023-07-28T09:53:44;96445.00;;;27.40;44.94
3150;BME280;32503;47.748;8.960;2023-07-28T09:56:15;96452.69;;;27.75;44.70
3150;BME280;32503;47.748;8.960;2023-07-28T09:58:49;96450.00;;;27.95;44.49
3150;BME280;32503;47.748;8.960;2023-07-28T10:01:19;96445.78;;;28.15;44.05
3150;BME280;32503;47.748;8.960;2023-07-28T10:03:47;96438.56;;;28.23;43.41
3150;BME280;32503;47.748;8.960;2023-07-28T10:06:16;96445.06;;;28.35;43.29
3150;BME280;32503;47.748;8.960;2023-07-28T10:08:45;96446.19;;;28.43;42.49
3150;BME280;32503;47.748;8.960;2023-07-28T10:11:12;96451.44;;;28.56;42.34
3150;BME280;32503;47.748;8.960;2023-07-28T10:13:40;96444.09;;;28.73;42.37
3150;BME280;32503;47.748;8.960;2023-07-28T10:16:08;96436.78;;;28.97;42.82
3150;BME280;32503;47.748;8.960;2023-07-28T10:18:37;96442.84;;;29.16;40.43
3150;BME280;32503;47.748;8.960;2023-07-28T10:21:06;96457.03;;;29.18;41.09
3150;BME280;32503;47.748;8.960;2023-07-28T10:23:35;96447.72;;;29.21;41.66
3150;BME280;32503;47.748;8.960;2023-07-28T10:26:03;96446.97;;;29.26;40.73
3150;BME280;32503;47.748;8.960;2023-07-28T10:28:35;96449.06;;;29.31;40.92
3150;BME280;32503;47.748;8.960;2023-07-28T10:31:06;96451.63;;;29.35;40.94
3150;BME280;32503;47.748;8.960;2023-07-28T10:33:35;96447.16;;;29.43;40.78
3150;BME280;32503;47.748;8.960;2023-07-28T10:36:16;96451.38;;;29.59;40.26
3150;BME280;32503;47.748;8.960;2023-07-28T10:38:44;96445.53;;;29.57;39.45
3150;BME280;32503;47.748;8.960;2023-07-28T10:41:14;96452.47;;;29.67;40.29
3150;BME280;32503;47.748;8.960;2023-07-28T10:43:42;96433.34;;;29.54;39.26
3150;BME280;32503;47.748;8.960;2023-07-28T10:46:14;96438.69;;;29.58;39.91
3150;BME280;32503;47.748;8.960;2023-07-28T10:48:43;96439.53;;;29.64;39.77
3150;BME280;32503;47.748;8.960;2023-07-28T10:51:15;96437.97;;;29.89;40.23
3150;BME280;32503;47.748;8.960;2023-07-28T10:53:46;96438.13;;;30.06;39.22
3150;BME280;32503;47.748;8.960;2023-07-28T10:56:16;96440.41;;;30.08;38.90
3150;BME280;32503;47.748;8.960;2023-07-28T10:58:43;96442.13;;;29.99;38.30
3150;BME280;32503;47.748;8.960;2023-07-28T11:01:11;96435.31;;;29.74;38.03
3150;BME280;32503;47.748;8.960;2023-07-28T11:03:40;96432.47;;;29.68;38.87
3150;BME280;32503;47.748;8.960;2023-07-28T11:06:07;96438.75;;;29.63;39.23
3150;BME280;32503;47.748;8.960;2023-07-28T11:08:35;96430.72;;;29.71;39.18
3150;BME280;32503;47.748;8.960;2023-07-28T11:11:04;96441.25;;;29.87;39.20
3150;BME280;32503;47.748;8.960;2023-07-28T11:13:32;96422.22;;;29.80;39.15
3150;BME280;32503;47.748;8.960;2023-07-28T11:16:00;96432.59;;;29.80;39.06
3150;BME280;32503;47.748;8.960;2023-07-28T11:18:28;96424.84;;;29.90;39.42
3150;BME280;32503;47.748;8.960;2023-07-28T11:20:55;96418.47;;;29.89;39.09
3150;BME280;32503;47.748;8.960;2023-07-28T11:23:22;96424.91;;;30.01;39.53
3150;BME280;32503;47.748;8.960;2023-07-28T11:25:51;96431.72;;;30.00;39.52
3150;BME280;32503;47.748;8.960;2023-07-28T11:28:19;96421.84;;;29.99;39.59
3150;BME280;32503;47.748;8.960;2023-07-28T11:30:46;96438.56;;;29.99;39.15
3150;BME280;32503;47.748;8.960;2023-07-28T11:33:14;96430.94;;;29.94;39.02
3150;BME280;32503;47.748;8.960;2023-07-28T11:35:44;96436.50;;;29.94;39.63
3150;BME280;32503;47.748;8.960;2023-07-28T11:38:13;96442.53;;;29.86;40.23
3150;BME280;32503;47.748;8.960;2023-07-28T11:40:41;96429.31;;;29.81;39.90
3150;BME280;32503;47.748;8.960;2023-07-28T11:43:10;96431.28;;;29.75;39.85
3150;BME280;32503;47.748;8.960;2023-07-28T11:45:37;96429.19;;;29.70;39.99
3150;BME280;32503;47.748;8.960;2023-07-28T11:48:06;96431.97;;;29.70;40.72
3150;BME280;32503;47.748;8.960;2023-07-28T11:50:37;96427.25;;;29.76;40.40
3150;BME280;32503;47.748;8.960;2023-07-28T11:53:05;96419.34;;;29.75;39.95
3150;BME280;32503;47.748;8.960;2023-07-28T11:55:34;96410.91;;;29.63;40.54
3150;BME280;32503;47.748;8.960;2023-07-28T11:58:02;96414.44;;;29.64;39.90
3150;BME280;32503;47.748;8.960;2023-07-28T12:00:34;96409.59;;;29.59;39.96
3150;BME280;32503;47.748;8.960;2023-07-28T12:03:06;96418.78;;;29.65;40.15
3150;BME280;32503;47.748;8.960;2023-07-28T12:05:35;96420.56;;;29.68;40.27
3150;BME280;32503;47.748;8.960;2023-07-28T12:08:03;96418.03;;;29.70;39.79
3150;BME280;32503;47.748;8.960;2023-07-28T12:10:31;96422.34;;;29.71;39.18
3150;BME280;32503;47.748;8.960;2023-07-28T12:13:04;96419.56;;;29.71;38.97
3150;BME280;32503;47.748;8.960;2023-07-28T12:15:33;96418.59;;;29.74;39.22
3150;BME280;32503;47.748;8.960;2023-07-28T12:18:09;96408.06;;;29.84;39.38
3150;BME280;32503;47.748;8.960;2023-07-28T12:20:39;96398.97;;;29.89;39.47
3150;BME280;32503;47.748;8.960;2023-07-28T12:23:08;96398.84;;;30.04;39.83
3150;BME280;32503;47.748;8.960;2023-07-28T12:25:36;96393.84;;;30.19;38.50
3150;BME280;32503;47.748;8.960;2023-07-28T12:28:04;96402.13;;;30.40;38.71
3150;BME280;32503;47.748;8.960;2023-07-28T12:30:33;96399.13;;;30.55;39.22
3150;BME280;32503;47.748;8.960;2023-07-28T12:33:01;96402.22;;;30.62;38.53
3150;BME280;32503;47.748;8.960;2023-07-28T12:35:29;96409.06;;;30.61;38.36
3150;BME280;32503;47.748;8.960;2023-07-28T12:37:58;96410.56;;;30.57;37.92
3150;BME280;32503;47.748;8.960;2023-07-28T12:40:27;96396.81;;;30.42;37.71
3150;BME280;32503;47.748;8.960;2023-07-28T12:42:55;96392.53;;;30.47;38.04
3150;BME280;32503;47.748;8.960;2023-07-28T12:45:22;96395.00;;;30.39;37.83
3150;BME280;32503;47.748;8.960;2023-07-28T12:47:52;96392.84;;;30.22;38.26
3150;BME280;32503;47.748;8.960;2023-07-28T12:50:20;96401.72;;;30.21;38.92
3150;BME280;32503;47.748;8.960;2023-07-28T12:52:47;96404.22;;;30.13;38.64
3150;BME280;32503;47.748;8.960;2023-07-28T12:55:15;96406.13;;;29.96;39.33
3150;BME280;32503;47.748;8.960;2023-07-28T12:57:43;96408.84;;;29.84;38.75
3150;BME280;32503;47.748;8.960;2023-07-28T13:00:12;96411.84;;;29.81;39.30
3150;BME280;32503;47.748;8.960;2023-07-28T13:02:40;96408.00;;;29.78;39.46
3150;BME280;32503;47.748;8.960;2023-07-28T13:05:10;96405.38;;;29.69;39.56
3150;BME280;32503;47.748;8.960;2023-07-28T13:07:38;96412.91;;;29.63;39.84
3150;BME280;32503;47.748;8.960;2023-07-28T13:10:08;96416.94;;;29.56;39.99
3150;BME280;32503;47.748;8.960;2023-07-28T13:12:35;96416.53;;;29.69;40.77
3150;BME280;32503;47.748;8.960;2023-07-28T13:15:03;96405.50;;;29.80;39.99
3150;BME280;32503;47.748;8.960;2023-07-28T13:17:31;96402.34;;;29.99;39.59